CDT,Max TemperatureF,Mean TemperatureF,Min TemperatureF,Max Dew PointF,MeanDew PointF,Min DewpointF,Max Humidity, Mean Humidity, Min Humidity, Max Sea Level PressureIn, Mean Sea Level PressureIn, Min Sea Level PressureIn, Max VisibilityMiles, Mean VisibilityMiles, Min VisibilityMiles, Max Wind SpeedMPH, Mean Wind SpeedMPH, Max Gust SpeedMPH,PrecipitationIn, CloudCover, Events, WindDirDegrees
2013-10-1,89,76,63,71,66,60,100,72,44,29.95,29.88,29.83,10,8,0,14,7,17,0.00,4,Fog,156
2013-10-2,89,81,72,72,71,68,93,73,52,29.99,29.92,29.84,10,10,10,18,11,22,0.00,4,,155
2013-10-3,91,82,73,73,71,67,100,72,44,29.94,29.88,29.80,10,10,10,20,12,23,0.00,4,,162
2013-10-4,90,82,73,72,69,67,93,72,50,29.92,29.86,29.81,10,10,10,22,14,28,0.00,3,,168
2013-10-5,81,69,56,72,60,41,97,73,49,30.09,29.97,29.86,10,10,10,28,13,38,T,6,,329
2013-10-6,78,63,47,52,43,33,93,56,19,30.14,30.09,30.04,10,10,10,22,9,26,0.03,1,Rain,323
2013-10-7,84,64,44,48,42,38,92,56,20,30.17,30.10,30.04,10,10,10,12,2,20,0.00,0,,328
2013-10-8,82,64,45,49,45,43,93,60,26,30.11,30.05,29.98,10,10,10,10,5,14,0.00,0,,128
2013-10-9,83,68,53,59,53,49,89,62,34,30.07,30.01,29.96,10,10,10,15,7,20,0.00,0,,143
2013-10-10,85,73,60,64,60,54,90,67,44,30.05,29.97,29.88,10,10,10,18,10,23,0.00,0,,156
2013-10-11,87,78,69,71,68,64,87,72,57,29.95,29.87,29.82,10,10,10,18,12,24,T,5,,164
2013-10-12,88,78,67,75,71,66,100,82,63,30.05,29.96,29.88,10,10,0,38,8,48,0.54,5,Fog-Rain-Thunderstorm,150
2013-10-13,79,73,67,68,67,66,100,85,69,30.19,30.11,30.02,10,10,10,20,6,28,0.44,5,Rain-Thunderstorm,70
2013-10-14,77,74,70,72,70,68,100,91,82,30.13,30.03,29.93,10,9,2,22,10,29,0.26,7,Rain,132
2013-10-15,74,64,54,72,66,54,100,94,87,30.05,29.96,29.91,10,7,2,23,11,26,2.63,7,Rain,263
2013-10-16,63,59,54,55,53,49,100,84,67,30.10,30.04,29.99,10,10,4,17,9,24,0.96,7,Rain,349
2013-10-17,73,60,46,51,48,45,93,67,40,30.15,30.06,29.99,10,10,10,21,4,33,0.00,1,,14
2013-10-18,70,61,52,60,54,50,100,79,57,30.06,29.97,29.90,10,10,6,25,6,35,0.01,5,Rain,119
2013-10-19,65,54,42,50,43,39,100,70,40,30.22,30.14,30.07,10,10,2,24,9,32,0.00,3,,351
2013-10-20,72,56,39,49,43,38,100,68,35,30.09,30.02,29.90,10,6,1,18,9,23,0.00,0,,179
2013-10-21,78,66,54,64,57,49,93,77,60,30.09,29.97,29.92,10,9,2,21,8,25,T,5,,350
2013-10-22,76,62,47,54,46,41,89,59,29,30.18,30.11,30.06,10,10,3,13,7,16,0.00,1,,327
2013-10-23,83,64,45,51,47,43,100,62,24,30.15,30.10,30.06,10,7,2,10,4,15,0.00,0,,225
2013-10-24,83,65,46,52,48,45,93,62,30,30.23,30.17,30.10,10,9,3,9,3,10,0.00,0,,168
2013-10-25,73,62,50,55,52,48,96,73,49,30.37,30.28,30.23,10,10,7,13,7,18,0.00,1,,64
2013-10-26,78,68,57,65,58,51,86,72,58,30.23,30.14,30.03,10,8,1,24,10,29,1.19,7,Rain-Thunderstorm,161
2013-10-27,70,64,57,61,60,57,100,83,66,30.14,30.08,30.02,10,6,1,13,3,15,0.53,7,Rain-Thunderstorm,44
2013-10-28,78,68,58,67,63,57,100,82,64,30.11,30.04,29.99,10,7,2,17,8,22,0.00,6,,153
2013-10-29,81,74,66,70,67,65,100,85,69,30.10,30.04,29.97,10,9,3,21,10,28,T,5,Rain,149
2013-10-30,81,75,68,74,70,66,100,90,79,30.07,29.94,29.81,10,5,1,17,7,22,0.71,7,Rain-Thunderstorm,129
2013-10-31,78,64,50,70,57,39,100,63,26,29.89,29.79,29.70,10,9,4,26,8,33,T,3,Rain,249